Evelyn Maersk — OXHV2 — position and weather

sailwx.info

Track history (hours):
 
Tides and Currents Weather Stations Pressure Air Temp Water Temp Dewpoint Dewpoint Depression Visibility Wind Speed Wind Dir Waves Ship Positions

Evelyn Maersk

Last reported at 2016-Jun-24 22:07 UTC. Time now 2016-Jun-26 13:48 UTC.
Position N 35°25' E 122°08'.

Length 398 m; draft 12.5 m.

Type: Ship (hazmat cat A). MMSI: 220496000.

Date/timePositionNaut miles runAvg speedWind from/ knotsBaromVisibWave heightAir tempDewpointWater temp
2016-Jun-24 22:07N 35°25' E 122°08'711.5
2016-Jun-24 21:29N 35°21' E 122°15'1211.5
2016-Jun-24 20:28N 35°15' E 122°27'1011.4
2016-Jun-24 19:33N 35°10' E 122°39'1111.2
2016-Jun-24 18:33N 35°04' E 122°50'1110.8
2016-Jun-24 17:32N 34°59' E 123°02'1110.9
2016-Jun-24 16:33N 34°53' E 123°13'  
2016-Jun-21 04:15N 36°44' E 123°43'3118.6
2016-Jun-21 02:33N 37°14' E 123°31'2018.0
2016-Jun-21 01:25N 37°33' E 123°22'4916.9
2016-Jun-20 22:32N 37°57' E 122°28'1717.5
2016-Jun-20 21:33N 38°07' E 122°10'1818.2
2016-Jun-20 20:33N 38°15' E 121°49'1918.5
2016-Jun-20 19:32N 38°23' E 121°27'2217.2
2016-Jun-20 18:14N 38°30' E 121°00'1111.7
2016-Jun-20 17:19N 38°32' E 120°47'1216.0
2016-Jun-20 16:33N 38°34' E 120°31'1716.8
2016-Jun-20 15:33N 38°35' E 120°10'9317.3
2016-Jun-20 10:09N 38°52' E 118°12'2012.2
2016-Jun-20 08:33N 38°58' E 117°48'2 1.5
2016-Jun-20 07:33N 38°60' E 117°47'0 0.0
2016-Jun-20 06:25N 38°60' E 117°47'0 0.0
2016-Jun-20 05:31N 38°60' E 117°47'0 0.0
2016-Jun-20 04:13N 38°60' E 117°47'0 0.0
2016-Jun-20 03:19N 38°60' E 117°47'0 0.0
2016-Jun-20 02:07N 38°60' E 117°47'0 0.0
2016-Jun-20 01:25N 38°60' E 117°47'0 0.0
2016-Jun-20 00:31N 38°60' E 117°47'0 0.0
2016-Jun-19 23:31N 38°60' E 117°47'0 0.0
2016-Jun-19 22:31N 38°60' E 117°47'0 0.0
2016-Jun-19 21:31N 38°60' E 117°47'0 0.0
2016-Jun-19 20:31N 38°60' E 117°47'0 0.0
2016-Jun-19 19:31N 38°60' E 117°47'0 0.0
2016-Jun-19 18:31N 38°60' E 117°47'0 0.0
2016-Jun-19 17:31N 38°60' E 117°47'0 0.0
2016-Jun-19 16:31N 38°60' E 117°47'0 0.0
2016-Jun-19 15:13N 38°60' E 117°47'0 0.0
2016-Jun-19 14:31N 38°60' E 117°47'0 0.0
2016-Jun-19 13:31N 38°60' E 117°47'0 0.0
2016-Jun-19 12:31N 38°60' E 117°47'0 0.0
2016-Jun-19 11:25N 38°60' E 117°47'0 0.0
2016-Jun-19 10:31N 38°60' E 117°47'0 0.0
2016-Jun-19 09:31N 38°60' E 117°47'0 0.0
2016-Jun-19 08:31N 38°60' E 117°47'0 0.0
2016-Jun-19 07:31N 38°60' E 117°47'0 0.0
2016-Jun-19 06:31N 38°60' E 117°47'0 0.0
2016-Jun-19 04:31N 38°60' E 117°47'0 0.0
2016-Jun-19 03:31N 38°60' E 117°47'0 0.0
2016-Jun-19 02:25N 38°60' E 117°47'0 0.0
2016-Jun-19 01:31N 38°60' E 117°47'0 0.0
2016-Jun-19 00:31N 38°60' E 117°47'0 0.0
2016-Jun-18 23:31N 38°60' E 117°47'0 0.0
2016-Jun-18 22:31N 38°60' E 117°47'0 0.0
2016-Jun-18 21:31N 38°60' E 117°47'0 0.0
2016-Jun-18 20:31N 38°60' E 117°47'0 0.0
2016-Jun-18 19:31N 38°60' E 117°47'1 0.7
2016-Jun-18 18:33N 38°59' E 117°47'10 9.7
2016-Jun-18 17:34N 38°56' E 117°59'10 9.4
2016-Jun-18 16:28N 38°53' E 118°12'9814.0
2016-Jun-18 09:28N 38°40' E 120°16'1714.1
2016-Jun-18 08:17N 38°41' E 120°38'912.5
2016-Jun-18 07:33N 38°37' E 120°48'1913.0
2016-Jun-18 06:07N 38°30' E 121°10'915.4
2016-Jun-18 05:33N 38°27' E 121°20'1615.4
2016-Jun-18 04:32N 38°20' E 121°39'9215.4
2016-Jun-17 22:33N 37°36' E 123°21'1716.8
2016-Jun-17 21:33N 37°20' E 123°22'1717.1
2016-Jun-17 20:33N 37°03' E 123°23'1717.0
2016-Jun-17 19:33N 36°45' E 123°23'1716.9
2016-Jun-17 18:33N 36°28' E 123°24'10217.0
2016-Jun-17 12:33N 34°47' E 123°23'24716.2
2016-Jun-16 21:17N 30°40' E 122°56'1215.4
2016-Jun-16 20:31N 30°33' E 122°46'3515.0
2016-Jun-16 18:10N 30°36' E 122°05'1 1.0
2016-Jun-16 17:33N 30°37' E 122°05'0 0.0
2016-Jun-16 01:15N 30°37' E 122°05'2 2.6
2016-Jun-16 00:33N 30°36' E 122°06'1611.6
2016-Jun-15 23:09N 30°33' E 122°25'1112.3
2016-Jun-15 22:16N 30°31' E 122°37'1418.7
2016-Jun-15 21:33N 30°24' E 122°51'  
Track history (hours):
 
Tides and Currents Weather Stations Pressure Air Temp Water Temp Dewpoint Dewpoint Depression Visibility Wind Speed Wind Dir Waves Ship Positions

Evelyn Maersk

Last reported at 2016-Jun-24 22:07 UTC. Time now 2016-Jun-26 13:48 UTC.
Position N 35°25' E 122°08'.

Length 398 m; draft 12.5 m.

Type: Ship (hazmat cat A). MMSI: 220496000.

Date/timePositionNaut miles runAvg speedWind from/ knotsBaromVisibWave heightAir tempDewpointWater temp
2016-Jun-24 22:07N 35°25' E 122°08'711.5
2016-Jun-24 21:29N 35°21' E 122°15'1211.5
2016-Jun-24 20:28N 35°15' E 122°27'1011.4
2016-Jun-24 19:33N 35°10' E 122°39'1111.2
2016-Jun-24 18:33N 35°04' E 122°50'1110.8
2016-Jun-24 17:32N 34°59' E 123°02'1110.9
2016-Jun-24 16:33N 34°53' E 123°13'  
2016-Jun-21 04:15N 36°44' E 123°43'3118.6
2016-Jun-21 02:33N 37°14' E 123°31'2018.0
2016-Jun-21 01:25N 37°33' E 123°22'4916.9
2016-Jun-20 22:32N 37°57' E 122°28'1717.5
2016-Jun-20 21:33N 38°07' E 122°10'1818.2
2016-Jun-20 20:33N 38°15' E 121°49'1918.5
2016-Jun-20 19:32N 38°23' E 121°27'2217.2
2016-Jun-20 18:14N 38°30' E 121°00'1111.7
2016-Jun-20 17:19N 38°32' E 120°47'1216.0
2016-Jun-20 16:33N 38°34' E 120°31'1716.8
2016-Jun-20 15:33N 38°35' E 120°10'9317.3
2016-Jun-20 10:09N 38°52' E 118°12'2012.2
2016-Jun-20 08:33N 38°58' E 117°48'2 1.5
2016-Jun-20 07:33N 38°60' E 117°47'0 0.0
2016-Jun-20 06:25N 38°60' E 117°47'0 0.0
2016-Jun-20 05:31N 38°60' E 117°47'0 0.0
2016-Jun-20 04:13N 38°60' E 117°47'0 0.0
2016-Jun-20 03:19N 38°60' E 117°47'0 0.0
2016-Jun-20 02:07N 38°60' E 117°47'0 0.0
2016-Jun-20 01:25N 38°60' E 117°47'0 0.0
2016-Jun-20 00:31N 38°60' E 117°47'0 0.0
2016-Jun-19 23:31N 38°60' E 117°47'0 0.0
2016-Jun-19 22:31N 38°60' E 117°47'0 0.0
2016-Jun-19 21:31N 38°60' E 117°47'0 0.0
2016-Jun-19 20:31N 38°60' E 117°47'0 0.0
2016-Jun-19 19:31N 38°60' E 117°47'0 0.0
2016-Jun-19 18:31N 38°60' E 117°47'0 0.0
2016-Jun-19 17:31N 38°60' E 117°47'0 0.0
2016-Jun-19 16:31N 38°60' E 117°47'0 0.0
2016-Jun-19 15:13N 38°60' E 117°47'0 0.0
2016-Jun-19 14:31N 38°60' E 117°47'0 0.0
2016-Jun-19 13:31N 38°60' E 117°47'0 0.0
2016-Jun-19 12:31N 38°60' E 117°47'0 0.0
2016-Jun-19 11:25N 38°60' E 117°47'0 0.0
2016-Jun-19 10:31N 38°60' E 117°47'0 0.0
2016-Jun-19 09:31N 38°60' E 117°47'0 0.0
2016-Jun-19 08:31N 38°60' E 117°47'0 0.0
2016-Jun-19 07:31N 38°60' E 117°47'0 0.0
2016-Jun-19 06:31N 38°60' E 117°47'0 0.0
2016-Jun-19 04:31N 38°60' E 117°47'0 0.0
2016-Jun-19 03:31N 38°60' E 117°47'0 0.0
2016-Jun-19 02:25N 38°60' E 117°47'0 0.0
2016-Jun-19 01:31N 38°60' E 117°47'0 0.0
2016-Jun-19 00:31N 38°60' E 117°47'0 0.0
2016-Jun-18 23:31N 38°60' E 117°47'0 0.0
2016-Jun-18 22:31N 38°60' E 117°47'0 0.0
2016-Jun-18 21:31N 38°60' E 117°47'0 0.0
2016-Jun-18 20:31N 38°60' E 117°47'0 0.0
2016-Jun-18 19:31N 38°60' E 117°47'1 0.7
2016-Jun-18 18:33N 38°59' E 117°47'10 9.7
2016-Jun-18 17:34N 38°56' E 117°59'10 9.4
2016-Jun-18 16:28N 38°53' E 118°12'9814.0
2016-Jun-18 09:28N 38°40' E 120°16'1714.1
2016-Jun-18 08:17N 38°41' E 120°38'912.5
2016-Jun-18 07:33N 38°37' E 120°48'1913.0
2016-Jun-18 06:07N 38°30' E 121°10'915.4
2016-Jun-18 05:33N 38°27' E 121°20'1615.4
2016-Jun-18 04:32N 38°20' E 121°39'9215.4
2016-Jun-17 22:33N 37°36' E 123°21'1716.8
2016-Jun-17 21:33N 37°20' E 123°22'1717.1
2016-Jun-17 20:33N 37°03' E 123°23'1717.0
2016-Jun-17 19:33N 36°45' E 123°23'1716.9
2016-Jun-17 18:33N 36°28' E 123°24'10217.0
2016-Jun-17 12:33N 34°47' E 123°23'24716.2
2016-Jun-16 21:17N 30°40' E 122°56'1215.4
2016-Jun-16 20:31N 30°33' E 122°46'3515.0
2016-Jun-16 18:10N 30°36' E 122°05'1 1.0
2016-Jun-16 17:33N 30°37' E 122°05'0 0.0
2016-Jun-16 01:15N 30°37' E 122°05'2 2.6
2016-Jun-16 00:33N 30°36' E 122°06'1611.6
2016-Jun-15 23:09N 30°33' E 122°25'1112.3
2016-Jun-15 22:16N 30°31' E 122°37'1418.7
2016-Jun-15 21:33N 30°24' E 122°51'  

Dump ship's entire track history